Time;durP1;ratioP1;P1;durP2;ratioP2;P2;SDS_P1;SDS_P2;PMS_P1;PMS_P2;Temp;Humidity;BMP_temperature;BMP_pressure;BME280_temperature;BME280_humidity;BME280_pressure;Samples;Min_cycle;Max_cycle;Signal;HPM_P1;HPM_P2
2021/06/28 00:00:14;;;;;;;6.97;3.80;;;22.40;90.70;;;;;;5036786;28;20029;-85
2021/06/28 00:02:39;;;;;;;5.88;3.88;;;22.30;90.80;;;;;;5052591;28;20107;-85
2021/06/28 00:05:08;;;;;;;6.78;3.92;;;22.30;90.70;;;;;;5048577;28;20044;-84
2021/06/28 00:07:34;;;;;;;5.53;4.10;;;22.40;90.70;;;;;;5045373;28;20111;-84
2021/06/28 00:09:59;;;;;;;5.32;4.10;;;22.30;90.70;;;;;;5045352;28;20437;-84
2021/06/28 00:12:25;;;;;;;5.70;4.35;;;22.30;90.60;;;;;;5045691;28;20020;-82
2021/06/28 00:14:50;;;;;;;5.15;3.90;;;22.40;90.60;;;;;;5043904;28;20017;-84
2021/06/28 00:17:16;;;;;;;5.85;3.97;;;22.40;90.60;;;;;;5043086;28;20021;-83
2021/06/28 00:19:42;;;;;;;5.13;3.78;;;22.40;90.50;;;;;;5044674;28;20111;-84
2021/06/28 00:22:07;;;;;;;6.53;4.00;;;22.40;90.40;;;;;;5044124;28;20074;-83
2021/06/28 00:24:33;;;;;;;8.27;3.72;;;22.40;90.40;;;;;;5047057;28;20346;-82
2021/06/28 00:26:58;;;;;;;6.03;4.30;;;22.40;90.30;;;;;;5045636;28;20029;-83
2021/06/28 00:29:24;;;;;;;4.70;3.92;;;22.40;90.30;;;;;;5042948;28;20517;-82
2021/06/28 00:31:53;;;;;;;6.80;3.63;;;22.40;90.30;;;;;;5044904;28;20021;-82
2021/06/28 00:34:19;;;;;;;5.45;3.95;;;22.40;90.30;;;;;;5045099;28;20473;-83
2021/06/28 00:36:45;;;;;;;6.13;3.92;;;22.30;90.30;;;;;;5043534;28;20021;-83
2021/06/28 00:39:10;;;;;;;6.03;3.92;;;22.40;90.30;;;;;;5042446;28;20032;-82
2021/06/28 00:41:36;;;;;;;7.53;3.80;;;22.40;90.20;;;;;;5044608;28;20519;-84
2021/06/28 00:44:02;;;;;;;4.82;3.60;;;22.40;90.00;;;;;;5042821;28;20556;-83
2021/06/28 00:46:27;;;;;;;6.38;3.53;;;22.40;89.80;;;;;;5043909;28;20041;-83
2021/06/28 00:48:55;;;;;;;5.47;4.07;;;22.40;89.70;;;;;;5047112;28;20024;-83
2021/06/28 00:51:23;;;;;;;5.70;4.03;;;22.30;89.90;;;;;;5045817;28;20024;-83
2021/06/28 00:53:49;;;;;;;6.25;4.07;;;22.30;90.00;;;;;;5041993;28;20115;-83
2021/06/28 00:56:15;;;;;;;7.10;4.13;;;22.30;90.00;;;;;;5045079;28;20079;-83
2021/06/28 00:58:43;;;;;;;4.03;3.45;;;22.30;89.90;;;;;;5045190;28;20013;-83
2021/06/28 01:01:10;;;;;;;4.68;3.65;;;22.30;90.00;;;;;;5044784;28;20025;-83
2021/06/28 01:03:36;;;;;;;6.55;4.00;;;22.30;90.00;;;;;;5045800;28;20017;-84
2021/06/28 01:06:02;;;;;;;4.70;3.30;;;22.30;90.00;;;;;;5042761;28;20128;-84
2021/06/28 01:08:28;;;;;;;5.63;4.03;;;22.40;89.80;;;;;;5063064;28;20086;-83
2021/06/28 01:10:54;;;;;;;5.85;3.83;;;22.30;89.80;;;;;;5044521;28;20453;-83
2021/06/28 01:13:20;;;;;;;6.18;3.53;;;22.30;89.60;;;;;;5044735;28;20052;-83
2021/06/28 01:15:46;;;;;;;4.65;3.67;;;22.40;89.40;;;;;;5047477;28;20032;-82
2021/06/28 01:18:12;;;;;;;5.10;3.53;;;22.40;89.30;;;;;;5042157;28;20070;-82
2021/06/28 01:20:38;;;;;;;4.10;3.70;;;22.30;89.20;;;;;;5045321;28;20037;-82
2021/06/28 01:23:31;;;;;;;4.88;3.88;;;22.30;89.30;;;;;;5044996;28;20048;-82
2021/06/28 01:26:00;;;;;;;4.93;3.50;;;22.30;89.20;;;;;;5041439;28;20112;-82
2021/06/28 01:28:26;;;;;;;6.20;4.05;;;22.40;89.20;;;;;;5045005;28;20035;-82
2021/06/28 01:30:53;;;;;;;4.10;3.35;;;22.30;89.80;;;;;;5044313;28;20044;-83
2021/06/28 01:33:19;;;;;;;5.53;4.13;;;22.30;89.30;;;;;;5060710;28;20020;-82
2021/06/28 01:35:45;;;;;;;5.40;4.10;;;22.30;89.50;;;;;;5053847;28;20017;-82
2021/06/28 01:38:11;;;;;;;5.93;3.60;;;22.20;90.00;;;;;;5044727;28;20024;-83
2021/06/28 01:40:38;;;;;;;7.45;3.63;;;22.20;90.10;;;;;;5046400;28;20020;-83
2021/06/28 01:43:05;;;;;;;4.93;3.65;;;22.20;90.00;;;;;;5049653;28;20016;-81
2021/06/28 01:45:31;;;;;;;5.53;3.95;;;22.20;89.90;;;;;;5065303;28;20106;-82
2021/06/28 01:47:57;;;;;;;5.85;4.18;;;22.30;89.90;;;;;;5052441;28;20021;-85
2021/06/28 01:50:25;;;;;;;6.07;4.00;;;22.30;89.80;;;;;;5048544;28;20046;-85
2021/06/28 01:52:52;;;;;;;6.72;3.95;;;22.30;90.00;;;;;;5040719;28;20029;-85
2021/06/28 01:55:19;;;;;;;4.32;3.50;;;22.20;90.10;;;;;;5044362;28;20036;-84
2021/06/28 01:57:52;;;;;;;5.78;3.72;;;22.20;90.20;;;;;;5046425;28;20357;-85
2021/06/28 02:00:21;;;;;;;6.20;4.10;;;22.10;90.40;;;;;;5049217;28;20025;-85
2021/06/28 02:02:58;;;;;;;4.35;3.53;;;22.20;90.60;;;;;;5047808;28;20022;-85
2021/06/28 02:05:25;;;;;;;6.00;4.05;;;22.20;90.80;;;;;;5046516;28;20017;-85
2021/06/28 02:07:52;;;;;;;7.18;5.13;;;22.20;90.70;;;;;;5047676;28;20030;-86
2021/06/28 02:10:17;;;;;;;5.53;4.15;;;22.20;90.70;;;;;;5045355;28;20094;-83
2021/06/28 02:12:43;;;;;;;5.68;4.07;;;22.10;90.80;;;;;;5049061;28;20437;-83
2021/06/28 02:15:20;;;;;;;5.15;4.00;;;22.00;91.30;;;;;;5048214;28;20499;-83
2021/06/28 02:17:45;;;;;;;8.38;4.50;;;22.00;90.90;;;;;;5068595;28;20091;-82
2021/06/28 02:20:11;;;;;;;5.63;4.10;;;22.10;91.00;;;;;;5047166;28;20413;-83
2021/06/28 02:22:38;;;;;;;5.45;4.40;;;22.00;91.00;;;;;;5048823;28;20012;-83
2021/06/28 02:25:06;;;;;;;5.70;3.92;;;22.00;91.10;;;;;;5065910;28;20016;-83
2021/06/28 02:27:32;;;;;;;5.43;3.90;;;22.00;91.10;;;;;;5047234;28;20104;-83
2021/06/28 02:29:58;;;;;;;5.00;3.80;;;22.00;91.20;;;;;;5046019;28;20154;-84
2021/06/28 02:32:23;;;;;;;4.95;3.78;;;22.00;91.10;;;;;;5047662;28;20016;-83
2021/06/28 02:34:49;;;;;;;6.32;4.15;;;22.00;91.00;;;;;;5048880;28;20029;-83
2021/06/28 02:37:15;;;;;;;7.70;4.47;;;22.00;91.00;;;;;;5044983;28;20021;-83
2021/06/28 02:39:40;;;;;;;4.88;4.18;;;22.10;91.00;;;;;;5047393;28;20054;-83
2021/06/28 02:42:06;;;;;;;5.30;3.88;;;22.10;90.80;;;;;;5048679;28;20049;-84
2021/06/28 02:44:32;;;;;;;5.55;4.45;;;22.10;90.60;;;;;;5047414;28;20138;-85
2021/06/28 02:46:58;;;;;;;9.52;4.40;;;22.10;90.60;;;;;;5045890;28;20098;-85
2021/06/28 02:49:24;;;;;;;5.40;4.50;;;22.10;90.80;;;;;;5065283;28;20024;-83
2021/06/28 02:51:51;;;;;;;6.78;4.35;;;22.00;90.80;;;;;;5065064;28;20098;-83
2021/06/28 02:54:17;;;;;;;5.60;4.45;;;22.00;90.90;;;;;;5048651;28;20025;-83
2021/06/28 02:56:42;;;;;;;5.68;4.50;;;21.90;91.20;;;;;;5046058;28;20017;-83
2021/06/28 02:59:11;;;;;;;6.95;4.40;;;22.00;91.40;;;;;;5062119;28;20031;-83
2021/06/28 03:01:37;;;;;;;6.60;4.32;;;22.00;91.30;;;;;;5064352;28;20495;-83
2021/06/28 03:04:03;;;;;;;5.57;3.85;;;22.10;91.10;;;;;;5045142;28;20016;-82
2021/06/28 03:06:28;;;;;;;5.00;4.13;;;22.00;90.90;;;;;;5050641;28;20025;-82
2021/06/28 03:08:54;;;;;;;5.32;3.72;;;22.00;90.90;;;;;;5047524;28;20070;-83
2021/06/28 03:11:21;;;;;;;4.93;3.58;;;21.90;91.30;;;;;;5046365;28;20033;-83
2021/06/28 03:13:49;;;;;;;4.05;3.50;;;21.90;91.00;;;;;;5063855;28;20100;-83
2021/06/28 03:16:15;;;;;;;4.78;3.42;;;21.80;91.10;;;;;;5047204;28;20020;-83
2021/06/28 03:18:40;;;;;;;5.80;3.58;;;21.80;91.10;;;;;;5049138;28;20032;-83
2021/06/28 03:21:11;;;;;;;6.20;3.75;;;21.80;91.20;;;;;;5044437;28;20037;-83
2021/06/28 03:23:39;;;;;;;5.70;3.30;;;21.80;91.00;;;;;;5047065;28;20094;-82
2021/06/28 03:26:05;;;;;;;6.18;3.60;;;21.70;91.00;;;;;;5064538;28;20162;-82
2021/06/28 03:28:31;;;;;;;4.93;3.30;;;21.70;91.10;;;;;;5047192;28;20415;-83
2021/06/28 03:30:57;;;;;;;5.30;3.42;;;21.70;91.10;;;;;;5044719;28;20020;-84
2021/06/28 03:33:23;;;;;;;5.53;4.03;;;21.60;91.20;;;;;;5044282;28;20461;-83
2021/06/28 03:35:51;;;;;;;4.43;3.35;;;21.60;91.30;;;;;;5063837;28;20017;-84
2021/06/28 03:38:17;;;;;;;4.65;3.47;;;21.60;91.30;;;;;;5044864;28;20108;-82
2021/06/28 03:40:43;;;;;;;5.65;3.78;;;21.60;91.10;;;;;;5045146;28;20028;-83
2021/06/28 03:43:10;;;;;;;4.63;3.50;;;21.60;91.10;;;;;;5046513;28;20028;-83
2021/06/28 03:45:37;;;;;;;5.45;3.33;;;21.60;91.10;;;;;;5045495;28;20017;-83
2021/06/28 03:48:05;;;;;;;4.07;3.03;;;21.60;91.20;;;;;;5047089;28;20044;-83
2021/06/28 03:50:31;;;;;;;5.65;3.20;;;21.60;91.10;;;;;;5044365;28;20087;-83
2021/06/28 03:52:57;;;;;;;4.30;3.35;;;21.60;91.30;;;;;;5043412;28;20059;-82
2021/06/28 03:55:23;;;;;;;4.72;3.40;;;21.60;90.90;;;;;;5044040;28;20053;-82
2021/06/28 03:57:49;;;;;;;3.88;3.30;;;21.70;90.90;;;;;;5045447;28;20530;-82
2021/06/28 04:00:21;;;;;;;6.03;3.30;;;21.70;90.80;;;;;;5045129;28;20025;-83
2021/06/28 04:02:47;;;;;;;4.35;3.55;;;21.60;90.90;;;;;;5044960;28;20055;-82
2021/06/28 04:05:18;;;;;;;5.35;3.28;;;21.60;90.90;;;;;;5042686;28;20067;-82
2021/06/28 04:07:44;;;;;;;3.50;2.92;;;21.60;91.00;;;;;;5045773;28;20013;-82
2021/06/28 04:10:11;;;;;;;4.72;3.58;;;21.60;91.10;;;;;;5044343;28;20368;-83
2021/06/28 04:12:37;;;;;;;4.68;3.45;;;21.60;91.10;;;;;;5046671;28;20066;-84
2021/06/28 04:15:06;;;;;;;4.80;3.83;;;21.50;91.20;;;;;;5063817;28;20043;-85
2021/06/28 04:17:31;;;;;;;4.30;3.40;;;21.60;91.10;;;;;;5062576;28;20020;-84
2021/06/28 04:19:57;;;;;;;5.20;4.03;;;21.60;91.10;;;;;;5064101;28;20024;-84
2021/06/28 04:22:23;;;;;;;4.30;3.20;;;21.60;91.20;;;;;;5048009;28;20052;-84
2021/06/28 04:24:49;;;;;;;4.82;3.38;;;21.60;91.00;;;;;;5044418;28;20029;-84
2021/06/28 04:27:22;;;;;;;4.68;3.60;;;21.60;91.10;;;;;;5139972;27;20359;-84
2021/06/28 04:29:47;;;;;;;6.07;3.08;;;21.50;91.20;;;;;;5102140;28;20031;-83
2021/06/28 04:32:13;;;;;;;6.13;3.63;;;21.50;91.20;;;;;;5104181;28;20032;-84
2021/06/28 04:34:44;;;;;;;4.55;3.40;;;21.50;91.20;;;;;;5099265;28;20015;-84
2021/06/28 04:37:10;;;;;;;4.28;3.53;;;21.50;91.40;;;;;;5102027;28;20016;-84
2021/06/28 04:39:36;;;;;;;4.82;3.45;;;21.40;91.40;;;;;;5121085;28;20474;-85
2021/06/28 04:42:02;;;;;;;4.30;3.40;;;21.30;91.40;;;;;;5119875;28;20011;-86
2021/06/28 04:44:28;;;;;;;5.93;3.63;;;21.40;91.40;;;;;;5097239;28;20056;-85
2021/06/28 04:46:54;;;;;;;4.95;3.60;;;21.30;91.50;;;;;;5118753;28;20415;-84
2021/06/28 04:49:19;;;;;;;4.47;3.15;;;21.30;91.40;;;;;;5099003;28;20118;-83
2021/06/28 04:51:45;;;;;;;4.32;3.45;;;21.30;91.40;;;;;;5096474;28;20150;-85
2021/06/28 04:54:11;;;;;;;4.25;3.63;;;21.30;91.40;;;;;;5118645;28;20097;-83
2021/06/28 04:56:36;;;;;;;5.32;3.50;;;21.40;91.80;;;;;;5101327;28;20027;-83
2021/06/28 04:59:02;;;;;;;5.68;3.60;;;21.30;91.40;;;;;;5098014;28;20020;-83
2021/06/28 05:01:28;;;;;;;5.50;3.55;;;21.30;91.50;;;;;;5102757;28;20517;-84
2021/06/28 05:03:58;;;;;;;3.95;3.20;;;21.20;91.70;;;;;;5101025;28;20475;-84
2021/06/28 05:06:24;;;;;;;4.65;3.50;;;21.10;91.80;;;;;;5101110;28;20047;-85
2021/06/28 05:08:49;;;;;;;6.82;3.78;;;21.20;91.60;;;;;;5100085;28;20020;-83
2021/06/28 05:11:15;;;;;;;7.47;3.50;;;21.20;91.60;;;;;;5115524;28;20023;-83
2021/06/28 05:13:41;;;;;;;4.45;3.28;;;21.20;91.70;;;;;;5099954;28;20031;-84
2021/06/28 05:16:06;;;;;;;6.50;4.32;;;21.20;91.70;;;;;;5098468;28;20030;-83
2021/06/28 05:18:32;;;;;;;5.07;4.15;;;21.20;91.80;;;;;;5095259;28;20024;-83
2021/06/28 05:20:58;;;;;;;5.47;3.65;;;21.20;91.80;;;;;;5102213;28;20047;-84
2021/06/28 05:23:23;;;;;;;6.22;3.65;;;21.30;91.80;;;;;;5102178;28;20031;-84
2021/06/28 05:25:50;;;;;;;6.68;3.63;;;21.30;91.80;;;;;;5092156;28;20048;-83
2021/06/28 05:28:15;;;;;;;6.18;3.75;;;21.30;91.70;;;;;;5079626;28;20101;-85
2021/06/28 05:30:41;;;;;;;6.85;3.97;;;21.40;91.60;;;;;;5078303;28;20210;-85
2021/06/28 05:33:07;;;;;;;5.70;3.47;;;21.50;91.20;;;;;;5091049;28;20338;-84
2021/06/28 05:35:33;;;;;;;3.97;3.22;;;21.50;91.20;;;;;;5086994;28;20031;-84
2021/06/28 05:37:59;;;;;;;4.43;3.55;;;21.50;91.10;;;;;;5071324;28;20366;-85
2021/06/28 05:40:24;;;;;;;4.55;3.30;;;21.60;90.90;;;;;;5081068;28;20031;-81
2021/06/28 05:42:50;;;;;;;6.00;3.20;;;21.70;90.30;;;;;;5058244;28;20033;-82
2021/06/28 05:45:16;;;;;;;4.90;2.70;;;21.70;90.20;;;;;;5085294;28;20114;-83
2021/06/28 05:47:42;;;;;;;4.03;3.00;;;21.70;90.40;;;;;;5063493;28;20528;-85
2021/06/28 05:50:11;;;;;;;4.45;3.03;;;21.70;90.40;;;;;;5063308;28;20012;-84
2021/06/28 05:52:37;;;;;;;3.38;2.70;;;21.70;90.30;;;;;;5082238;28;20049;-85
2021/06/28 05:55:03;;;;;;;5.45;2.53;;;21.70;90.20;;;;;;5068610;28;20016;-85
2021/06/28 05:57:29;;;;;;;2.90;2.30;;;21.80;89.80;;;;;;5065442;28;20070;-84
2021/06/28 05:59:54;;;;;;;4.85;2.33;;;21.80;88.40;;;;;;5065682;28;20024;-83
2021/06/28 06:02:21;;;;;;;2.75;2.30;;;21.90;87.60;;;;;;5076001;28;20495;-84
2021/06/28 06:04:47;;;;;;;3.28;2.45;;;22.00;87.20;;;;;;5064120;28;20020;-85
2021/06/28 06:07:13;;;;;;;4.15;2.28;;;22.00;86.50;;;;;;5070706;28;20476;-83
2021/06/28 06:09:38;;;;;;;7.72;4.47;;;22.10;86.10;;;;;;5057812;28;20021;-85
2021/06/28 06:12:05;;;;;;;3.45;2.60;;;22.10;85.70;;;;;;5064037;28;20132;-85
2021/06/28 06:14:31;;;;;;;4.93;2.30;;;22.20;86.20;;;;;;5070198;28;20020;-85
2021/06/28 06:16:57;;;;;;;2.45;2.05;;;22.20;86.20;;;;;;5069018;28;20028;-85
2021/06/28 06:19:23;;;;;;;3.47;2.50;;;22.20;86.40;;;;;;5066903;28;20020;-85
2021/06/28 06:21:49;;;;;;;2.83;2.35;;;22.30;85.10;;;;;;5063394;28;20032;-85
2021/06/28 06:24:14;;;;;;;2.80;1.90;;;22.30;84.10;;;;;;5079065;28;20476;-84
2021/06/28 06:26:41;;;;;;;5.82;2.10;;;22.30;83.80;;;;;;5077127;28;20048;-86
2021/06/28 06:29:07;;;;;;;2.40;1.80;;;22.30;84.00;;;;;;5083924;28;20027;-86
2021/06/28 06:31:33;;;;;;;2.25;2.05;;;22.30;83.70;;;;;;5077342;28;20020;-85
2021/06/28 06:33:58;;;;;;;2.20;1.92;;;22.40;83.70;;;;;;5076790;28;20119;-85
2021/06/28 06:36:27;;;;;;;5.25;2.10;;;22.40;83.30;;;;;;5073179;28;20056;-88
2021/06/28 06:38:52;;;;;;;2.03;1.50;;;22.60;83.50;;;;;;5094596;28;20023;-87
2021/06/28 06:41:18;;;;;;;3.28;2.00;;;22.60;82.00;;;;;;5076655;28;20035;-84
2021/06/28 06:43:44;;;;;;;2.90;1.70;;;22.70;81.40;;;;;;5094869;28;20081;-86
2021/06/28 06:46:10;;;;;;;2.60;1.80;;;22.70;81.50;;;;;;5077384;28;20380;-86
2021/06/28 06:48:36;;;;;;;2.47;1.52;;;22.80;80.70;;;;;;5070348;28;20025;-86
2021/06/28 06:51:02;;;;;;;3.38;1.85;;;22.90;80.50;;;;;;5074035;28;20050;-84
2021/06/28 06:53:28;;;;;;;1.70;1.60;;;22.90;80.10;;;;;;5084461;28;20020;-85
2021/06/28 06:55:54;;;;;;;3.40;1.50;;;22.90;80.50;;;;;;5074005;28;20032;-86
2021/06/28 06:58:22;;;;;;;2.13;1.50;;;22.90;80.00;;;;;;5074810;28;20389;-88
2021/06/28 07:00:48;;;;;;;2.30;1.75;;;22.90;79.90;;;;;;5076602;28;20471;-88
2021/06/28 07:03:13;;;;;;;2.60;1.48;;;22.90;79.90;;;;;;5077270;28;20028;-93
2021/06/28 07:05:39;;;;;;;2.38;1.38;;;22.90;79.70;;;;;;5076466;28;20036;-85
2021/06/28 07:08:05;;;;;;;1.85;1.67;;;22.80;80.20;;;;;;5076686;28;20020;-86
2021/06/28 07:10:31;;;;;;;2.33;1.80;;;22.70;80.70;;;;;;5085794;28;20046;-89
2021/06/28 07:12:57;;;;;;;2.40;1.85;;;22.70;82.30;;;;;;5076179;28;20020;-87
2021/06/28 07:15:23;;;;;;;2.25;1.90;;;22.70;82.50;;;;;;5077191;28;20346;-84
2021/06/28 07:17:49;;;;;;;3.47;2.00;;;22.70;82.80;;;;;;5094495;28;20110;-85
2021/06/28 07:20:18;;;;;;;2.03;1.80;;;22.70;83.00;;;;;;5077135;28;20028;-85
2021/06/28 07:22:45;;;;;;;2.80;1.95;;;22.60;84.00;;;;;;5074572;28;20035;-85
2021/06/28 07:25:12;;;;;;;3.47;1.92;;;22.70;83.00;;;;;;5076219;28;20020;-85
2021/06/28 07:27:38;;;;;;;2.97;1.83;;;22.70;83.20;;;;;;5076420;28;20020;-86
2021/06/28 07:30:10;;;;;;;4.60;2.00;;;22.70;83.20;;;;;;5076519;28;20093;-84
2021/06/28 07:32:36;;;;;;;2.95;2.22;;;22.70;82.30;;;;;;5076232;28;20095;-86
2021/06/28 07:35:04;;;;;;;4.35;2.08;;;22.70;82.60;;;;;;5076386;28;20020;-84
2021/06/28 07:37:29;;;;;;;2.63;2.30;;;22.70;82.80;;;;;;5076724;28;20070;-83
2021/06/28 07:39:55;;;;;;;3.58;2.15;;;22.70;82.70;;;;;;5072068;28;20594;-84
2021/06/28 07:42:21;;;;;;;3.08;1.88;;;22.70;82.60;;;;;;5072772;28;20082;-83
2021/06/28 07:44:47;;;;;;;2.65;1.80;;;22.80;82.10;;;;;;5075931;28;20056;-87
2021/06/28 07:47:12;;;;;;;2.08;1.73;;;22.80;82.50;;;;;;5076495;28;20032;-87
2021/06/28 07:49:38;;;;;;;1.42;1.33;;;22.80;82.90;;;;;;5076294;28;20028;-89
2021/06/28 07:52:04;;;;;;;4.63;1.63;;;22.80;81.10;;;;;;5076318;28;20035;-90
2021/06/28 07:54:30;;;;;;;2.92;1.65;;;22.90;81.10;;;;;;5076200;28;20024;-87
2021/06/28 07:56:56;;;;;;;2.08;1.65;;;22.90;80.90;;;;;;5062203;28;20062;-94
2021/06/28 07:59:22;;;;;;;2.80;1.60;;;23.00;80.70;;;;;;5076567;28;20387;-89
2021/06/28 08:01:47;;;;;;;2.17;1.35;;;23.10;79.40;;;;;;5055485;28;20021;-83
2021/06/28 08:04:13;;;;;;;3.72;1.70;;;23.30;79.20;;;;;;5069842;28;20038;-83
2021/06/28 08:06:39;;;;;;;2.80;1.60;;;23.40;78.70;;;;;;5092790;28;20114;-89
2021/06/28 08:09:05;;;;;;;2.67;1.35;;;23.50;77.90;;;;;;5075276;28;20081;-86
2021/06/28 08:11:31;;;;;;;2.30;1.42;;;23.60;76.90;;;;;;5075894;28;20028;-86
2021/06/28 08:13:57;;;;;;;1.40;1.30;;;23.80;76.20;;;;;;5074794;28;20173;-88
2021/06/28 08:16:24;;;;;;;1.38;1.27;;;23.90;74.00;;;;;;5075234;28;20460;-84
2021/06/28 08:18:52;;;;;;;1.80;1.40;;;24.00;73.40;;;;;;5075154;28;20032;-85
2021/06/28 08:21:18;;;;;;;1.58;1.38;;;24.10;72.90;;;;;;5075746;28;20032;-85
2021/06/28 08:23:44;;;;;;;2.38;1.85;;;24.20;73.30;;;;;;5092883;28;20034;-84
2021/06/28 08:26:10;;;;;;;2.35;1.80;;;24.30;73.00;;;;;;5074355;28;20138;-84
2021/06/28 08:28:36;;;;;;;3.13;1.70;;;24.40;73.30;;;;;;5092498;28;20091;-87
2021/06/28 08:31:03;;;;;;;1.80;1.70;;;24.50;73.90;;;;;;5093353;28;20103;-83
2021/06/28 08:33:29;;;;;;;1.90;1.70;;;24.50;74.50;;;;;;5075227;28;20027;-85
2021/06/28 08:35:55;;;;;;;1.88;1.48;;;24.60;74.50;;;;;;5075508;28;20376;-85
2021/06/28 08:38:21;;;;;;;1.67;1.38;;;24.60;74.30;;;;;;5076081;28;20020;-85
2021/06/28 08:40:48;;;;;;;2.65;1.60;;;24.60;72.00;;;;;;5075230;28;20024;-87
2021/06/28 08:43:14;;;;;;;2.50;1.45;;;24.60;73.10;;;;;;5076414;28;20384;-87
2021/06/28 08:45:43;;;;;;;6.60;2.17;;;24.60;73.50;;;;;;5076367;28;20039;-87
2021/06/28 08:48:09;;;;;;;2.38;1.70;;;24.70;73.60;;;;;;5076769;28;20389;-87
2021/06/28 08:50:37;;;;;;;2.80;1.80;;;24.70;73.70;;;;;;5094654;28;20028;-91
2021/06/28 08:53:14;;;;;;;2.90;1.60;;;24.70;73.80;;;;;;5076722;28;20047;-91
2021/06/28 08:55:40;;;;;;;1.70;1.45;;;24.70;73.40;;;;;;5075319;28;20028;-88
2021/06/28 08:58:06;;;;;;;1.90;1.52;;;24.80;73.40;;;;;;5075328;28;20483;-85
2021/06/28 09:00:33;;;;;;;1.83;1.40;;;24.80;71.60;;;;;;5067244;28;20452;-85
2021/06/28 09:03:01;;;;;;;2.72;1.65;;;24.90;71.70;;;;;;5075454;28;20115;-85
2021/06/28 09:05:28;;;;;;;2.67;1.40;;;24.90;71.70;;;;;;5074424;28;20059;-85
2021/06/28 09:08:13;;;;;;;8.43;1.70;;;24.90;71.50;;;;;;5062519;28;20119;-85
2021/06/28 09:10:42;;;;;;;2.78;1.83;;;24.90;70.70;;;;;;5083182;28;20051;-83
2021/06/28 09:13:08;;;;;;;1.98;1.48;;;24.90;71.50;;;;;;5078540;28;20020;-84
2021/06/28 09:15:48;;;;;;;2.25;1.48;;;24.80;72.10;;;;;;5097915;28;20028;-85
2021/06/28 09:18:22;;;;;;;2.50;1.70;;;24.70;72.30;;;;;;5079123;28;20055;-86
2021/06/28 09:20:50;;;;;;;2.30;1.67;;;24.70;72.80;;;;;;5077886;28;20028;-87
2021/06/28 09:23:20;;;;;;;2.47;1.50;;;24.70;74.00;;;;;;5078200;28;20024;-85
2021/06/28 09:25:46;;;;;;;2.15;1.80;;;24.70;74.60;;;;;;5074591;28;20052;-87
2021/06/28 09:28:12;;;;;;;2.17;1.80;;;24.80;74.60;;;;;;5075799;28;20032;-89
2021/06/28 09:30:45;;;;;;;2.03;1.83;;;24.90;74.30;;;;;;5075109;28;20112;-86
2021/06/28 09:33:11;;;;;;;2.22;1.85;;;24.90;74.00;;;;;;5075331;28;20485;-85
2021/06/28 09:35:39;;;;;;;1.73;1.63;;;25.00;74.30;;;;;;5075277;28;20035;-86
2021/06/28 09:38:07;;;;;;;2.50;2.15;;;25.20;75.20;;;;;;5074745;28;20048;-84
2021/06/28 09:40:36;;;;;;;1.92;1.50;;;25.30;76.10;;;;;;5065151;28;20446;-86
2021/06/28 09:43:25;;;;;;;1.95;1.60;;;25.40;74.00;;;;;;5066984;28;20052;-88
2021/06/28 09:45:55;;;;;;;1.45;1.35;;;25.40;72.40;;;;;;5075581;28;20041;-86
2021/06/28 09:48:31;;;;;;;1.83;1.63;;;25.50;72.30;;;;;;5075022;28;20032;-84
2021/06/28 09:51:29;;;;;;;1.83;1.65;;;25.50;71.50;;;;;;5058986;28;20094;-85
2021/06/28 09:54:07;;;;;;;2.83;1.33;;;25.50;72.40;;;;;;5074505;28;20067;-86
2021/06/28 09:56:35;;;;;;;2.22;1.60;;;25.50;70.30;;;;;;5074798;28;20094;-85
2021/06/28 09:59:24;;;;;;;1.50;1.38;;;25.40;70.30;;;;;;5075269;28;20020;-85
2021/06/28 10:02:10;;;;;;;1.85;1.52;;;25.40;66.20;;;;;;5074545;28;20017;-87
2021/06/28 10:04:49;;;;;;;2.40;1.70;;;25.30;67.40;;;;;;5071860;28;20016;-85
2021/06/28 10:07:31;;;;;;;2.15;1.30;;;25.40;68.60;;;;;;5074916;28;20389;-86
2021/06/28 10:10:09;;;;;;;2.08;1.20;;;25.40;68.40;;;;;;5069154;28;20027;-87
2021/06/28 10:12:37;;;;;;;1.67;1.40;;;25.30;67.60;;;;;;5072480;28;20074;-90
2021/06/28 10:15:05;;;;;;;1.48;1.27;;;25.20;68.40;;;;;;5075984;28;20020;-86
2021/06/28 10:17:31;;;;;;;1.50;1.40;;;25.20;69.00;;;;;;5074799;28;20119;-90
2021/06/28 10:19:57;;;;;;;1.88;1.67;;;25.20;69.60;;;;;;5074438;28;20560;-91
2021/06/28 10:22:23;;;;;;;1.58;1.30;;;25.20;69.40;;;;;;5074529;28;20365;-92
2021/06/28 10:24:49;;;;;;;2.17;1.60;;;25.20;69.10;;;;;;5073872;28;20484;-89
2021/06/28 10:27:14;;;;;;;1.50;1.27;;;25.30;71.60;;;;;;5094301;28;20063;-84
2021/06/28 10:29:40;;;;;;;1.60;1.50;;;25.30;70.80;;;;;;5077048;28;20020;-87
2021/06/28 10:32:10;;;;;;;1.90;1.67;;;25.30;71.10;;;;;;5077529;28;20016;-86
2021/06/28 10:34:38;;;;;;;1.50;1.40;;;25.40;70.80;;;;;;5076517;28;20036;-86
2021/06/28 10:37:32;;;;;;;1.67;1.55;;;25.40;68.20;;;;;;5077792;28;20463;-90
2021/06/28 10:40:01;;;;;;;2.00;1.60;;;25.40;66.60;;;;;;5071865;28;20020;-90
2021/06/28 10:42:54;;;;;;;3.15;1.58;;;25.50;66.30;;;;;;5073577;28;20046;-88
2021/06/28 10:45:44;;;;;;;1.70;1.40;;;25.60;66.10;;;;;;5076519;28;20067;-85
2021/06/28 10:48:15;;;;;;;1.40;1.30;;;25.60;64.40;;;;;;5095770;28;20372;-84
2021/06/28 10:50:56;;;;;;;1.65;1.50;;;25.70;64.70;;;;;;5076516;28;20077;-85
2021/06/28 10:53:34;;;;;;;2.65;1.52;;;25.80;63.80;;;;;;5077379;28;20491;-85
2021/06/28 10:56:25;;;;;;;1.67;1.50;;;25.80;65.40;;;;;;5076624;28;20043;-91
2021/06/28 10:59:00;;;;;;;1.85;1.50;;;25.80;65.60;;;;;;5094522;28;20031;-88
2021/06/28 11:01:43;;;;;;;3.05;1.73;;;25.80;66.10;;;;;;5077903;28;20028;-87
2021/06/28 11:04:22;;;;;;;1.63;1.40;;;25.90;67.10;;;;;;5077291;28;20028;-86
2021/06/28 11:07:03;;;;;;;1.48;1.38;;;25.80;65.70;;;;;;5077544;28;20039;-86
2021/06/28 11:09:47;;;;;;;1.60;1.50;;;25.90;65.30;;;;;;5077043;28;20031;-83
2021/06/28 11:12:22;;;;;;;2.50;1.58;;;25.90;65.20;;;;;;5076956;28;20024;-82
2021/06/28 11:14:50;;;;;;;2.15;1.65;;;26.00;64.90;;;;;;5077413;28;20039;-85
2021/06/28 11:17:20;;;;;;;2.50;1.60;;;26.00;65.60;;;;;;5091486;28;20028;-87
2021/06/28 11:19:49;;;;;;;1.67;1.45;;;26.00;66.50;;;;;;5076324;28;20114;-88
2021/06/28 11:22:27;;;;;;;1.98;1.80;;;26.10;64.60;;;;;;5077771;28;20035;-95
2021/06/28 11:25:09;;;;;;;3.08;1.70;;;26.10;63.90;;;;;;5078263;28;20051;-90
2021/06/28 11:27:43;;;;;;;1.67;1.58;;;26.10;63.90;;;;;;5058159;28;20035;-88
2021/06/28 11:30:15;;;;;;;2.05;1.52;;;26.20;65.10;;;;;;5057172;28;20021;-85
2021/06/28 11:33:06;;;;;;;1.55;1.45;;;26.30;64.80;;;;;;5085232;28;20112;-83
2021/06/28 11:35:47;;;;;;;1.70;1.60;;;26.40;63.80;;;;;;5052321;28;20047;-82
2021/06/28 11:38:21;;;;;;;2.75;1.80;;;26.50;63.60;;;;;;5053446;28;20048;-84
2021/06/28 11:41:23;;;;;;;2.03;1.75;;;26.60;65.30;;;;;;5037732;28;20024;-82
2021/06/28 11:44:16;;;;;;;1.65;1.55;;;26.70;64.80;;;;;;4980202;28;20035;-84
2021/06/28 11:46:41;;;;;;;2.83;1.55;;;26.80;65.40;;;;;;5039786;28;20401;-84
2021/06/28 11:49:14;;;;;;;1.67;1.58;;;26.90;66.50;;;;;;5056895;28;20029;-85
2021/06/28 11:51:45;;;;;;;2.60;1.80;;;27.00;66.00;;;;;;5056230;28;20112;-83
2021/06/28 11:54:15;;;;;;;2.03;1.40;;;27.00;64.80;;;;;;5060926;28;20028;-82
2021/06/28 11:56:51;;;;;;;2.03;1.60;;;26.90;64.00;;;;;;5074876;28;20113;-83
2021/06/28 11:59:21;;;;;;;2.00;1.63;;;26.80;64.10;;;;;;5043553;28;20024;-84
2021/06/28 12:01:48;;;;;;;2.97;1.63;;;26.80;64.90;;;;;;5050756;28;20461;-83
2021/06/28 12:04:23;;;;;;;1.88;1.70;;;26.90;65.20;;;;;;5047357;28;20031;-81
2021/06/28 12:06:53;;;;;;;2.20;1.65;;;26.90;66.00;;;;;;5075032;28;20028;-83
2021/06/28 12:09:19;;;;;;;3.40;1.57;;;27.00;65.00;;;;;;5056543;28;20033;-82
2021/06/28 12:12:00;;;;;;;2.17;1.65;;;27.00;64.60;;;;;;5057260;28;20078;-82
2021/06/28 12:14:53;;;;;;;2.08;1.70;;;27.20;65.40;;;;;;5058099;28;20040;-82
2021/06/28 12:17:23;;;;;;;3.80;1.60;;;27.30;63.40;;;;;;5055256;28;20032;-81
2021/06/28 12:19:57;;;;;;;2.65;1.55;;;27.30;64.50;;;;;;5056878;28;20067;-81
2021/06/28 12:22:26;;;;;;;1.70;1.60;;;27.40;64.80;;;;;;5056382;28;20043;-80
2021/06/28 12:24:58;;;;;;;1.80;1.70;;;27.50;63.60;;;;;;5065938;28;20021;-87
2021/06/28 12:27:26;;;;;;;1.75;1.52;;;27.60;63.90;;;;;;5074982;28;20101;-81
2021/06/28 12:29:53;;;;;;;2.13;1.52;;;27.60;63.50;;;;;;5075632;28;20039;-83
2021/06/28 12:32:46;;;;;;;2.38;2.00;;;27.60;62.90;;;;;;5075691;28;20080;-82
2021/06/28 12:35:17;;;;;;;2.22;1.73;;;27.70;63.10;;;;;;5089181;28;20067;-81
2021/06/28 12:37:48;;;;;;;;;;;27.70;62.90;;;;;;5077180;28;20096;-87
2021/06/28 12:40:32;;;;;;;2.65;1.65;;;27.70;63.30;;;;;;5093134;28;19908;-85
2021/06/28 12:43:13;;;;;;;2.33;1.90;;;27.70;62.90;;;;;;5076244;28;20024;-82
2021/06/28 12:45:44;;;;;;;2.83;1.83;;;27.70;63.00;;;;;;5094390;28;20107;-89
2021/06/28 12:48:14;;;;;;;;;;;27.70;63.40;;;;;;5080476;28;20165;-81
2021/06/28 12:50:40;;;;;;;2.72;1.90;;;27.90;62.40;;;;;;5078651;28;19991;-82
2021/06/28 12:53:17;;;;;;;2.30;1.70;;;28.10;62.30;;;;;;5097896;28;20402;-80
2021/06/28 12:55:45;;;;;;;1.70;1.60;;;28.40;61.70;;;;;;5078196;28;20040;-80